createdAt,value
2022-08-11T00:00:03.306Z,0.50
2022-08-11T00:00:13.402Z,0.60
2022-08-11T00:00:23.436Z,0.60
2022-08-11T00:00:33.433Z,0.60
2022-08-11T00:00:43.352Z,0.70
2022-08-11T00:00:53.339Z,0.60
2022-08-11T00:01:03.314Z,0.70
2022-08-11T00:01:13.307Z,0.50
2022-08-11T00:01:23.397Z,0.60
2022-08-11T00:01:33.428Z,0.70
2022-08-11T00:01:43.354Z,0.90
2022-08-11T00:01:53.377Z,0.90
2022-08-11T00:02:03.330Z,0.90
2022-08-11T00:02:15.445Z,0.70
2022-08-11T00:02:23.519Z,0.70
2022-08-11T00:02:33.501Z,0.60
2022-08-11T00:02:43.412Z,0.80
2022-08-11T00:02:53.427Z,0.90
2022-08-11T00:03:03.446Z,0.90
2022-08-11T00:03:13.530Z,0.70
2022-08-11T00:03:23.471Z,0.50
2022-08-11T00:03:43.304Z,0.50
2022-08-11T00:03:44.053Z,0.60
2022-08-11T00:03:53.368Z,0.60
2022-08-11T00:04:03.395Z,0.60
2022-08-11T00:04:13.308Z,0.80
2022-08-11T00:04:23.376Z,0.60
2022-08-11T00:04:33.413Z,0.60
2022-08-11T00:04:43.345Z,0.40
2022-08-11T00:04:53.355Z,0.60
2022-08-11T00:05:03.375Z,0.60
2022-08-11T00:05:13.411Z,0.70
2022-08-11T00:05:23.318Z,0.50
2022-08-11T00:05:33.354Z,0.60
2022-08-11T00:05:43.362Z,0.60
2022-08-11T00:05:53.374Z,0.70
2022-08-11T00:06:03.397Z,0.60
2022-08-11T00:06:13.302Z,0.70
2022-08-11T00:06:23.311Z,0.60
2022-08-11T00:06:33.432Z,0.70
2022-08-11T00:06:43.358Z,0.60
2022-08-11T00:06:53.318Z,0.60
2022-08-11T00:07:03.383Z,0.40
2022-08-11T00:07:13.384Z,0.60
2022-08-11T00:07:23.343Z,0.80
2022-08-11T00:07:33.330Z,0.80
2022-08-11T00:07:43.369Z,0.80
2022-08-11T00:07:53.362Z,0.60
2022-08-11T00:08:03.409Z,0.60
2022-08-11T00:08:13.318Z,0.60
2022-08-11T00:08:23.318Z,0.70
2022-08-11T00:08:33.425Z,0.80
2022-08-11T00:08:43.431Z,0.80
2022-08-11T00:08:53.361Z,0.80
2022-08-11T00:09:03.297Z,0.70
2022-08-11T00:09:13.433Z,0.70
2022-08-11T00:09:23.308Z,0.60
2022-08-11T00:09:38.903Z,0.60
2022-08-11T00:09:43.396Z,0.70
2022-08-11T00:09:53.298Z,0.60
2022-08-11T00:10:03.332Z,0.50
2022-08-11T00:10:13.359Z,0.40
2022-08-11T00:10:23.427Z,0.40
2022-08-11T00:10:33.392Z,0.50
2022-08-11T00:10:43.396Z,0.50
2022-08-11T00:10:53.325Z,0.60
2022-08-11T00:11:03.380Z,0.70
2022-08-11T00:11:13.313Z,0.60
2022-08-11T00:11:23.301Z,0.50
2022-08-11T00:11:33.378Z,0.60
2022-08-11T00:11:43.369Z,0.60
2022-08-11T00:11:53.405Z,0.60
2022-08-11T00:12:03.357Z,0.70
2022-08-11T00:12:13.397Z,0.70
2022-08-11T00:12:23.431Z,0.80
2022-08-11T00:12:33.337Z,0.80
2022-08-11T00:12:43.421Z,0.80
2022-08-11T00:12:53.328Z,0.70
2022-08-11T00:13:03.365Z,0.70
2022-08-11T00:13:13.399Z,0.70
2022-08-11T00:13:23.382Z,0.70
2022-08-11T00:13:33.326Z,0.60
2022-08-11T00:13:43.337Z,0.70
2022-08-11T00:13:53.330Z,0.80
2022-08-11T00:14:03.320Z,0.70
2022-08-11T00:14:13.361Z,0.80
2022-08-11T00:14:23.328Z,0.60
2022-08-11T00:14:35.974Z,0.70
2022-08-11T00:14:43.308Z,0.60
2022-08-11T00:14:53.337Z,0.70
2022-08-11T00:15:03.327Z,0.80
2022-08-11T00:15:13.417Z,0.90
2022-08-11T00:15:23.338Z,0.70
2022-08-11T00:15:33.416Z,0.70
2022-08-11T00:15:43.319Z,0.60
2022-08-11T00:15:53.370Z,0.60
2022-08-11T00:16:03.365Z,0.60
2022-08-11T00:16:13.354Z,0.70
2022-08-11T00:16:23.298Z,0.80
2022-08-11T00:16:33.416Z,0.70
2022-08-11T00:16:43.414Z,0.60
2022-08-11T00:16:53.384Z,0.70
2022-08-11T00:17:03.369Z,0.70
2022-08-11T00:17:13.330Z,0.80
2022-08-11T00:17:23.316Z,0.70
2022-08-11T00:17:33.429Z,0.70
2022-08-11T00:17:43.333Z,0.50
2022-08-11T00:17:53.318Z,0.70
2022-08-11T00:18:03.324Z,0.60
2022-08-11T00:18:13.426Z,0.60
2022-08-11T00:18:23.413Z,0.60
2022-08-11T00:18:33.299Z,0.60
2022-08-11T00:18:43.325Z,0.60
2022-08-11T00:18:53.359Z,0.60
2022-08-11T00:19:03.401Z,0.70
2022-08-11T00:19:13.368Z,0.90
2022-08-11T00:20:12.026Z,0.90
2022-08-11T00:20:12.187Z,0.90
2022-08-11T00:20:12.894Z,0.70
2022-08-11T00:20:12.974Z,0.60
2022-08-11T00:20:15.133Z,0.80
2022-08-11T00:20:16.762Z,0.50
2022-08-11T00:20:23.352Z,0.60
2022-08-11T00:20:33.396Z,0.60
2022-08-11T00:20:43.392Z,0.90
2022-08-11T00:20:53.310Z,0.80
2022-08-11T00:21:03.421Z,0.80
2022-08-11T00:21:13.364Z,0.60
2022-08-11T00:21:32.490Z,0.60
2022-08-11T00:22:04.034Z,0.60
2022-08-11T00:22:04.534Z,0.50
2022-08-11T00:22:04.650Z,0.60
2022-08-11T00:22:05.092Z,0.60
2022-08-11T00:22:13.427Z,0.50
2022-08-11T00:22:23.332Z,0.50
2022-08-11T00:22:33.422Z,0.50
2022-08-11T00:22:43.371Z,0.60
2022-08-11T00:22:53.296Z,0.60
2022-08-11T00:23:03.406Z,0.50
2022-08-11T00:23:13.374Z,0.50
2022-08-11T00:23:23.427Z,0.70
2022-08-11T00:23:33.422Z,0.80
2022-08-11T00:23:43.358Z,0.80
2022-08-11T00:23:53.354Z,0.70
2022-08-11T00:24:03.398Z,0.70
2022-08-11T00:24:13.433Z,0.70
2022-08-11T00:24:23.300Z,0.70
2022-08-11T00:24:33.405Z,0.70
2022-08-11T00:24:53.756Z,0.80
2022-08-11T00:24:57.347Z,0.70
2022-08-11T00:25:03.388Z,0.70
2022-08-11T00:25:13.368Z,0.80
2022-08-11T00:25:23.318Z,0.80
2022-08-11T00:25:33.311Z,0.70
2022-08-11T00:25:43.424Z,0.60
2022-08-11T00:25:53.395Z,0.70
2022-08-11T00:26:03.409Z,0.80
2022-08-11T00:26:13.411Z,0.80
2022-08-11T00:26:23.316Z,0.70
2022-08-11T00:26:33.328Z,0.80
2022-08-11T00:26:43.357Z,0.80
2022-08-11T00:26:53.360Z,0.80
2022-08-11T00:27:03.389Z,0.70
2022-08-11T00:27:14.134Z,0.70
2022-08-11T00:27:23.387Z,0.70
2022-08-11T00:27:33.394Z,0.80
2022-08-11T00:27:43.356Z,0.80
2022-08-11T00:27:53.367Z,0.80
2022-08-11T00:28:03.391Z,0.70
2022-08-11T00:28:13.384Z,1.10
2022-08-11T00:28:23.303Z,1.20
2022-08-11T00:28:33.301Z,1.10
2022-08-11T00:28:43.408Z,0.80
2022-08-11T00:28:53.359Z,0.80
2022-08-11T00:29:03.431Z,0.70
2022-08-11T00:29:13.327Z,0.60
2022-08-11T00:29:23.373Z,0.50
2022-08-11T00:29:33.413Z,0.60
2022-08-11T00:29:51.754Z,0.60
2022-08-11T00:29:53.304Z,0.60
2022-08-11T00:30:03.378Z,0.60
2022-08-11T00:30:13.377Z,0.60
2022-08-11T00:30:23.334Z,0.70
2022-08-11T00:30:33.352Z,0.60
2022-08-11T00:30:43.426Z,0.70
2022-08-11T00:30:53.411Z,0.60
2022-08-11T00:31:04.424Z,0.50
2022-08-11T00:31:13.371Z,0.70
2022-08-11T00:31:23.414Z,0.70
2022-08-11T00:31:33.364Z,0.80
2022-08-11T00:31:43.434Z,0.80
2022-08-11T00:31:53.351Z,0.70
2022-08-11T00:32:03.375Z,0.70
2022-08-11T00:32:13.360Z,0.90
2022-08-11T00:32:23.404Z,0.90
2022-08-11T00:32:33.414Z,0.80
2022-08-11T00:32:43.334Z,0.50
2022-08-11T00:32:53.339Z,0.50
2022-08-11T00:33:03.295Z,0.60
2022-08-11T00:33:13.346Z,0.90
2022-08-11T00:33:41.107Z,0.80
2022-08-11T00:33:42.543Z,0.80
2022-08-11T00:33:44.966Z,0.60
2022-08-11T00:33:53.338Z,0.60
2022-08-11T00:34:03.446Z,0.70
2022-08-11T00:34:13.357Z,0.70
2022-08-11T00:34:23.366Z,0.80
2022-08-11T00:34:33.305Z,0.80
2022-08-11T00:34:43.321Z,1.00
2022-08-11T00:34:53.365Z,0.90
2022-08-11T00:35:50.733Z,0.80
2022-08-11T00:35:53.627Z,0.50
2022-08-11T00:35:54.047Z,0.50
2022-08-11T00:35:55.216Z,0.50
2022-08-11T00:35:55.380Z,0.80
2022-08-11T00:35:57.507Z,0.70
2022-08-11T00:36:03.415Z,0.80
2022-08-11T00:36:13.335Z,0.70
2022-08-11T00:36:25.612Z,0.70
2022-08-11T00:36:33.374Z,0.70
2022-08-11T00:36:43.358Z,0.60
2022-08-11T00:36:53.371Z,0.60
2022-08-11T00:37:03.377Z,0.70
2022-08-11T00:37:13.307Z,0.90
2022-08-11T00:37:23.375Z,0.90
2022-08-11T00:37:33.306Z,0.70
2022-08-11T00:37:43.338Z,0.50
2022-08-11T00:37:53.422Z,0.50
2022-08-11T00:38:03.368Z,0.50
2022-08-11T00:38:13.312Z,0.50
2022-08-11T00:38:23.350Z,0.50
2022-08-11T00:38:33.408Z,0.50
2022-08-11T00:38:43.428Z,0.50
2022-08-11T00:38:53.326Z,0.50
2022-08-11T00:39:03.373Z,0.70
2022-08-11T00:39:13.463Z,0.80
2022-08-11T00:39:28.599Z,0.90
2022-08-11T00:39:33.411Z,0.80
2022-08-11T00:39:43.444Z,0.70
2022-08-11T00:39:53.504Z,0.50
2022-08-11T00:40:03.483Z,0.40
2022-08-11T00:40:13.382Z,0.50
2022-08-11T00:40:23.396Z,0.60
2022-08-11T00:40:33.326Z,0.70
2022-08-11T00:40:43.335Z,0.80
2022-08-11T00:40:53.394Z,0.80
2022-08-11T00:41:03.396Z,1.00
2022-08-11T00:41:13.344Z,0.80
2022-08-11T00:41:23.297Z,0.80
2022-08-11T00:41:33.350Z,0.50
2022-08-11T00:41:43.423Z,0.50
2022-08-11T00:41:56.716Z,0.50
2022-08-11T00:42:03.429Z,0.60
2022-08-11T00:42:13.369Z,0.70
2022-08-11T00:42:23.341Z,0.60
2022-08-11T00:42:33.424Z,0.70
2022-08-11T00:42:43.401Z,0.80
2022-08-11T00:42:53.433Z,0.90
2022-08-11T00:43:03.422Z,0.90
2022-08-11T00:43:20.494Z,0.80
2022-08-11T00:43:23.404Z,0.70
2022-08-11T00:43:33.425Z,0.60
2022-08-11T00:43:43.320Z,0.60
2022-08-11T00:43:53.343Z,0.60
2022-08-11T00:44:03.396Z,0.80
2022-08-11T00:44:13.341Z,0.70
2022-08-11T00:44:23.412Z,0.90
2022-08-11T00:44:33.386Z,0.70
2022-08-11T00:44:43.297Z,0.70
2022-08-11T00:44:53.331Z,0.60
2022-08-11T00:45:03.387Z,0.70
2022-08-11T00:45:13.412Z,0.60
2022-08-11T00:45:23.317Z,0.50
2022-08-11T00:45:33.373Z,0.40
2022-08-11T00:45:43.397Z,0.50
2022-08-11T00:45:53.394Z,0.50
2022-08-11T00:46:03.403Z,0.50
2022-08-11T00:46:13.433Z,0.60
2022-08-11T00:46:23.322Z,0.70
2022-08-11T00:46:33.379Z,0.80
2022-08-11T00:46:43.358Z,0.80
2022-08-11T00:46:53.392Z,0.70
2022-08-11T00:47:03.407Z,0.60
2022-08-11T00:47:13.354Z,0.60
2022-08-11T00:47:23.403Z,0.70
2022-08-11T00:47:33.323Z,0.60
2022-08-11T00:47:43.356Z,0.80
2022-08-11T00:47:53.358Z,0.70
2022-08-11T00:48:03.405Z,0.80
2022-08-11T00:48:13.363Z,0.70
2022-08-11T00:48:23.311Z,0.70
2022-08-11T00:48:33.381Z,0.80
2022-08-11T00:48:43.410Z,0.90
2022-08-11T00:48:53.424Z,1.00
2022-08-11T00:49:03.352Z,1.00
2022-08-11T00:49:13.367Z,0.80
2022-08-11T00:49:23.408Z,0.70
2022-08-11T00:49:33.417Z,0.60
2022-08-11T00:49:43.363Z,0.70
2022-08-11T00:49:53.349Z,0.60
2022-08-11T00:50:03.419Z,0.60
2022-08-11T00:50:13.396Z,0.60
2022-08-11T00:50:23.426Z,0.70
2022-08-11T00:50:33.441Z,0.70
2022-08-11T00:50:43.413Z,0.60
2022-08-11T00:50:53.365Z,0.50
2022-08-11T00:51:03.407Z,0.50
2022-08-11T00:51:13.413Z,0.60
2022-08-11T00:51:23.390Z,0.70
2022-08-11T00:51:57.633Z,0.60
2022-08-11T00:51:59.752Z,0.70
2022-08-11T00:52:04.993Z,0.60
2022-08-11T00:52:05.562Z,0.70
2022-08-11T00:52:13.296Z,1.00
2022-08-11T00:52:23.302Z,0.90
2022-08-11T00:52:33.328Z,0.90
2022-08-11T00:52:43.367Z,0.70
2022-08-11T00:52:53.325Z,0.70
2022-08-11T00:53:03.329Z,0.80
2022-08-11T00:53:13.430Z,0.80
2022-08-11T00:53:23.330Z,0.70
2022-08-11T00:53:33.313Z,0.60
2022-08-11T00:53:43.410Z,0.70
2022-08-11T00:53:53.397Z,0.60
2022-08-11T00:54:03.298Z,0.70
2022-08-11T00:54:13.430Z,0.70
2022-08-11T00:54:23.303Z,0.90
2022-08-11T00:54:33.324Z,0.90
2022-08-11T00:54:43.349Z,0.90
2022-08-11T00:54:53.375Z,0.90
2022-08-11T00:55:03.439Z,0.80
2022-08-11T00:55:13.407Z,0.90
2022-08-11T00:55:23.399Z,0.90
2022-08-11T00:55:33.303Z,0.90
2022-08-11T00:55:47.015Z,0.80
2022-08-11T00:55:55.434Z,0.70
2022-08-11T00:56:03.336Z,0.80
2022-08-11T00:56:13.425Z,0.80
2022-08-11T00:56:23.331Z,0.80
2022-08-11T00:56:33.409Z,0.90
2022-08-11T00:56:43.318Z,0.90
2022-08-11T00:56:53.397Z,0.90
2022-08-11T00:57:03.424Z,0.90
2022-08-11T00:57:36.877Z,0.90
2022-08-11T00:57:36.978Z,0.90
2022-08-11T00:57:37.203Z,0.80
2022-08-11T00:57:43.355Z,0.70
2022-08-11T00:57:53.332Z,0.70
2022-08-11T00:58:03.305Z,0.80
2022-08-11T00:58:13.363Z,0.90
2022-08-11T00:58:23.422Z,0.70
2022-08-11T00:58:33.423Z,0.80
2022-08-11T00:58:43.363Z,0.60
2022-08-11T00:58:53.317Z,0.60
2022-08-11T00:59:03.389Z,0.60
2022-08-11T00:59:34.990Z,0.80
2022-08-11T00:59:35.029Z,0.70
2022-08-11T00:59:35.700Z,0.80
2022-08-11T00:59:43.359Z,0.90
2022-08-11T00:59:53.330Z,0.90
2022-08-11T01:00:03.814Z,0.90
2022-08-11T01:00:13.327Z,0.70
2022-08-11T01:00:23.406Z,0.80
2022-08-11T01:00:33.491Z,0.70
2022-08-11T01:00:43.376Z,0.80
2022-08-11T01:00:53.426Z,0.60
2022-08-11T01:01:03.464Z,0.50
2022-08-11T01:01:13.574Z,0.40
2022-08-11T01:01:23.408Z,0.50
2022-08-11T01:01:33.417Z,0.60
2022-08-11T01:01:43.297Z,0.70
2022-08-11T01:01:53.320Z,0.80
2022-08-11T01:02:03.379Z,0.80
2022-08-11T01:02:13.323Z,1.00
2022-08-11T01:02:23.340Z,0.90
2022-08-11T01:02:33.310Z,0.70
2022-08-11T01:02:43.336Z,0.60
2022-08-11T01:02:53.381Z,0.70
2022-08-11T01:03:03.422Z,1.00
2022-08-11T01:03:13.377Z,0.90
2022-08-11T01:03:23.320Z,1.00
2022-08-11T01:03:33.303Z,0.90
2022-08-11T01:03:43.362Z,0.80
2022-08-11T01:03:53.311Z,0.90
2022-08-11T01:04:03.329Z,0.90
2022-08-11T01:04:13.338Z,0.90
2022-08-11T01:04:23.439Z,0.90
2022-08-11T01:04:33.354Z,1.00
2022-08-11T01:04:43.355Z,1.10
2022-08-11T01:04:55.799Z,1.00
2022-08-11T01:05:03.342Z,0.90
2022-08-11T01:05:13.389Z,0.80
2022-08-11T01:05:23.411Z,0.70
2022-08-11T01:05:33.423Z,0.70
2022-08-11T01:05:43.429Z,0.80
2022-08-11T01:05:53.353Z,0.80
2022-08-11T01:06:03.375Z,0.70
2022-08-11T01:06:13.339Z,0.70
2022-08-11T01:06:23.308Z,0.60
2022-08-11T01:06:33.393Z,0.60
2022-08-11T01:06:43.410Z,0.80
2022-08-11T01:06:53.427Z,0.90
2022-08-11T01:07:03.332Z,1.10
2022-08-11T01:07:13.405Z,0.80
2022-08-11T01:08:01.045Z,0.60
2022-08-11T01:08:01.307Z,0.70
2022-08-11T01:08:01.543Z,0.70
2022-08-11T01:08:01.930Z,0.60
2022-08-11T01:08:03.707Z,1.00
2022-08-11T01:08:13.360Z,0.90
2022-08-11T01:08:23.401Z,1.00
2022-08-11T01:08:33.340Z,0.80
2022-08-11T01:08:43.345Z,1.00
2022-08-11T01:08:53.414Z,1.00
2022-08-11T01:09:03.307Z,1.00
2022-08-11T01:09:21.886Z,0.70
2022-08-11T01:09:23.354Z,0.80
2022-08-11T01:09:33.420Z,0.60
2022-08-11T01:09:43.413Z,0.70
2022-08-11T01:09:53.299Z,0.70
2022-08-11T01:10:07.178Z,0.80
2022-08-11T01:10:13.327Z,0.70
2022-08-11T01:10:23.371Z,0.70
2022-08-11T01:10:33.387Z,0.60
2022-08-11T01:10:43.406Z,0.60
2022-08-11T01:10:53.347Z,0.70
2022-08-11T01:11:03.345Z,0.70
2022-08-11T01:11:13.349Z,0.80
2022-08-11T01:11:23.340Z,0.80
2022-08-11T01:11:33.314Z,0.90
2022-08-11T01:11:55.840Z,0.90
2022-08-11T01:11:55.974Z,0.90
2022-08-11T01:12:03.306Z,0.80
2022-08-11T01:12:13.384Z,0.70
2022-08-11T01:12:23.414Z,0.70
2022-08-11T01:12:33.410Z,0.80
2022-08-11T01:12:43.312Z,0.70
2022-08-11T01:12:53.331Z,0.80
2022-08-11T01:13:03.324Z,0.90
2022-08-11T01:13:13.406Z,0.90
2022-08-11T01:13:23.416Z,0.90
2022-08-11T01:13:33.423Z,0.80
2022-08-11T01:13:43.427Z,0.90
2022-08-11T01:13:53.394Z,1.00
2022-08-11T01:14:03.303Z,1.10
2022-08-11T01:14:13.315Z,1.10
2022-08-11T01:14:33.749Z,1.10
2022-08-11T01:14:34.553Z,1.00
2022-08-11T01:14:43.387Z,0.80
2022-08-11T01:14:53.297Z,0.70
2022-08-11T01:15:03.322Z,0.70
2022-08-11T01:15:13.355Z,0.80
2022-08-11T01:15:23.324Z,0.90
2022-08-11T01:15:33.390Z,1.00
2022-08-11T01:15:43.405Z,0.90
2022-08-11T01:15:57.379Z,0.80
2022-08-11T01:16:03.362Z,0.70
2022-08-11T01:16:13.387Z,0.80
2022-08-11T01:16:23.303Z,0.70
2022-08-11T01:16:33.329Z,0.90
2022-08-11T01:16:43.373Z,0.90
2022-08-11T01:16:53.305Z,0.90
2022-08-11T01:17:03.391Z,0.80
2022-08-11T01:17:14.302Z,0.70
2022-08-11T01:17:23.429Z,0.70
2022-08-11T01:17:33.323Z,0.70
2022-08-11T01:17:43.329Z,0.60
2022-08-11T01:17:53.396Z,0.60
2022-08-11T01:18:03.312Z,0.60
2022-08-11T01:18:13.380Z,0.70
2022-08-11T01:18:23.353Z,0.60
2022-08-11T01:18:33.441Z,0.80
2022-08-11T01:18:43.359Z,0.80
2022-08-11T01:18:53.400Z,0.80
2022-08-11T01:19:03.319Z,0.70
2022-08-11T01:19:13.373Z,0.70
2022-08-11T01:19:23.303Z,0.70
2022-08-11T01:19:33.352Z,0.80
2022-08-11T01:20:39.699Z,0.80
2022-08-11T01:20:45.325Z,0.80
2022-08-11T01:20:46.043Z,0.90
2022-08-11T01:20:47.009Z,0.80
2022-08-11T01:20:47.406Z,0.80
2022-08-11T01:20:48.023Z,0.90
2022-08-11T01:20:48.532Z,0.80
2022-08-11T01:20:53.420Z,0.90
2022-08-11T01:21:03.364Z,0.80
2022-08-11T01:21:13.330Z,0.80
2022-08-11T01:21:23.321Z,0.70
2022-08-11T01:21:33.423Z,0.80
2022-08-11T01:21:43.335Z,0.80
2022-08-11T01:21:53.303Z,0.70
2022-08-11T01:22:03.359Z,0.90
2022-08-11T01:22:13.376Z,0.70
2022-08-11T01:22:23.405Z,0.70
2022-08-11T01:22:33.411Z,0.60
2022-08-11T01:22:43.370Z,0.70
2022-08-11T01:22:53.373Z,0.70
2022-08-11T01:23:03.347Z,0.60
2022-08-11T01:23:13.426Z,0.60
2022-08-11T01:23:23.391Z,0.60
2022-08-11T01:23:33.430Z,0.80
2022-08-11T01:23:43.322Z,0.90
2022-08-11T01:23:53.304Z,0.90
2022-08-11T01:24:03.384Z,0.80
2022-08-11T01:24:13.406Z,0.70
2022-08-11T01:24:23.401Z,0.60
2022-08-11T01:24:33.360Z,0.60
2022-08-11T01:24:43.433Z,0.70
2022-08-11T01:24:53.381Z,0.70
2022-08-11T01:25:03.312Z,0.90
2022-08-11T01:25:13.337Z,1.00
2022-08-11T01:25:23.351Z,0.90
2022-08-11T01:25:33.327Z,0.90
2022-08-11T01:25:56.656Z,0.70
2022-08-11T01:25:56.831Z,0.80
2022-08-11T01:26:03.304Z,0.80
2022-08-11T01:26:13.326Z,0.70
2022-08-11T01:26:23.333Z,0.80
2022-08-11T01:26:33.338Z,0.70
2022-08-11T01:26:43.407Z,0.80
2022-08-11T01:26:53.310Z,0.70
2022-08-11T01:27:03.405Z,0.70
2022-08-11T01:27:18.921Z,0.70
2022-08-11T01:27:23.333Z,0.70
2022-08-11T01:27:33.408Z,0.60
2022-08-11T01:27:43.436Z,0.60
2022-08-11T01:27:53.306Z,0.50
2022-08-11T01:28:03.359Z,0.60
2022-08-11T01:28:13.374Z,0.70
2022-08-11T01:28:23.334Z,0.80
2022-08-11T01:28:33.412Z,0.80
2022-08-11T01:28:43.357Z,0.80
2022-08-11T01:28:53.408Z,0.80
2022-08-11T01:29:03.429Z,0.80
2022-08-11T01:29:13.295Z,0.70
2022-08-11T01:29:23.423Z,0.90
2022-08-11T01:29:33.315Z,1.00
2022-08-11T01:29:49.249Z,1.10
2022-08-11T01:29:53.404Z,0.80
2022-08-11T01:30:03.414Z,0.80
2022-08-11T01:30:13.349Z,0.80
2022-08-11T01:30:23.299Z,1.00
2022-08-11T01:30:33.357Z,1.00
2022-08-11T01:30:43.399Z,1.20
2022-08-11T01:30:54.397Z,1.20
2022-08-11T01:31:03.355Z,0.90
2022-08-11T01:31:13.410Z,0.60
2022-08-11T01:31:23.844Z,0.50
2022-08-11T01:31:33.414Z,0.60
2022-08-11T01:31:43.345Z,0.70
2022-08-11T01:31:53.295Z,0.80
2022-08-11T01:32:03.341Z,0.70
2022-08-11T01:32:13.330Z,0.70
2022-08-11T01:32:23.300Z,0.70
2022-08-11T01:32:33.516Z,0.60
2022-08-11T01:32:43.310Z,0.60
2022-08-11T01:32:53.368Z,0.70
2022-08-11T01:33:03.405Z,0.80
2022-08-11T01:33:13.351Z,0.80
2022-08-11T01:33:23.325Z,0.80
2022-08-11T01:33:33.361Z,0.80
2022-08-11T01:33:43.321Z,0.80
2022-08-11T01:33:53.352Z,0.70
2022-08-11T01:34:03.386Z,0.70
2022-08-11T01:34:13.298Z,0.80
2022-08-11T01:34:23.317Z,0.90
2022-08-11T01:34:33.380Z,0.80
2022-08-11T01:34:43.403Z,0.70
2022-08-11T01:34:53.339Z,0.70
2022-08-11T01:35:03.362Z,0.70
2022-08-11T01:35:13.381Z,0.80
2022-08-11T01:35:23.304Z,0.80
2022-08-11T01:35:33.404Z,1.00
2022-08-11T01:35:43.411Z,0.80
2022-08-11T01:35:53.366Z,0.80
2022-08-11T01:36:03.332Z,1.00
2022-08-11T01:36:13.296Z,1.10
2022-08-11T01:36:23.411Z,1.00
2022-08-11T01:36:33.345Z,0.90
2022-08-11T01:36:43.420Z,0.80
2022-08-11T01:36:56.711Z,0.80
2022-08-11T01:37:03.345Z,0.60
2022-08-11T01:37:13.411Z,0.70
2022-08-11T01:37:23.414Z,0.80
2022-08-11T01:37:33.311Z,0.90
2022-08-11T01:37:43.433Z,1.10
2022-08-11T01:37:53.325Z,1.00
2022-08-11T01:38:03.378Z,0.90
2022-08-11T01:38:13.422Z,0.70
2022-08-11T01:38:23.367Z,0.70
2022-08-11T01:38:33.564Z,0.70
2022-08-11T01:38:43.421Z,0.60
2022-08-11T01:38:53.324Z,0.50
2022-08-11T01:39:03.386Z,0.60
2022-08-11T01:39:13.513Z,0.80
2022-08-11T01:39:23.432Z,0.80
2022-08-11T01:39:33.384Z,1.00
2022-08-11T01:39:43.433Z,0.80
2022-08-11T01:39:53.441Z,0.90
2022-08-11T01:40:03.316Z,1.00
2022-08-11T01:40:13.407Z,0.90
2022-08-11T01:40:23.341Z,0.90
2022-08-11T01:40:33.322Z,0.80
2022-08-11T01:40:43.359Z,0.90
2022-08-11T01:40:53.295Z,0.90
2022-08-11T01:41:03.407Z,0.80
2022-08-11T01:41:13.299Z,0.80
2022-08-11T01:41:23.330Z,0.70
2022-08-11T01:41:33.383Z,0.60
2022-08-11T01:41:43.377Z,0.60
2022-08-11T01:41:53.411Z,0.70
2022-08-11T01:42:03.308Z,0.70
2022-08-11T01:42:13.315Z,1.00
2022-08-11T01:42:23.372Z,1.10
2022-08-11T01:42:33.486Z,1.10
2022-08-11T01:42:43.351Z,0.80
2022-08-11T01:42:53.449Z,0.70
2022-08-11T01:43:03.327Z,0.70
2022-08-11T01:43:13.312Z,1.00
2022-08-11T01:43:23.337Z,1.10
2022-08-11T01:43:33.406Z,1.20
2022-08-11T01:43:43.389Z,1.00
2022-08-11T01:43:53.332Z,0.90
2022-08-11T01:44:03.422Z,0.90
2022-08-11T01:44:13.424Z,0.80
2022-08-11T01:44:23.328Z,0.90
2022-08-11T01:44:33.303Z,0.60
2022-08-11T01:44:43.307Z,0.70
2022-08-11T01:44:53.431Z,0.70
2022-08-11T01:45:03.389Z,0.90
2022-08-11T01:45:13.386Z,0.90
2022-08-11T01:45:24.068Z,0.90
2022-08-11T01:45:33.401Z,0.80
2022-08-11T01:45:43.419Z,1.00
2022-08-11T01:45:53.378Z,1.00
2022-08-11T01:46:03.299Z,1.00
2022-08-11T01:46:13.374Z,0.90
2022-08-11T01:46:23.396Z,0.90
2022-08-11T01:46:33.309Z,0.90
2022-08-11T01:46:43.335Z,0.90
2022-08-11T01:46:53.300Z,1.00
2022-08-11T01:47:03.335Z,1.00
2022-08-11T01:47:13.376Z,0.90
2022-08-11T01:47:23.323Z,0.90
2022-08-11T01:47:33.418Z,0.90
2022-08-11T01:47:53.253Z,0.90
2022-08-11T01:47:54.348Z,0.80
2022-08-11T01:48:03.427Z,0.80
2022-08-11T01:48:13.318Z,0.90
2022-08-11T01:48:23.363Z,0.70
2022-08-11T01:48:33.387Z,0.80
2022-08-11T01:48:43.352Z,0.70
2022-08-11T01:48:53.379Z,0.80
2022-08-11T01:49:28.970Z,0.70
2022-08-11T01:49:58.613Z,0.70
2022-08-11T01:50:05.870Z,0.70
2022-08-11T01:50:06.766Z,0.90
2022-08-11T01:50:07.638Z,0.90
2022-08-11T01:50:08.328Z,0.80
2022-08-11T01:50:09.786Z,1.00
2022-08-11T01:50:13.426Z,1.00
2022-08-11T01:50:23.370Z,0.80
2022-08-11T01:50:33.389Z,0.90
2022-08-11T01:50:43.418Z,0.80
2022-08-11T01:50:53.377Z,0.80
2022-08-11T01:51:03.310Z,0.70
2022-08-11T01:51:16.683Z,0.90
2022-08-11T01:51:23.399Z,0.80
2022-08-11T01:51:33.385Z,0.90
2022-08-11T01:51:45.295Z,0.80
2022-08-11T01:51:53.376Z,0.90
2022-08-11T01:52:03.416Z,0.80
2022-08-11T01:52:13.409Z,0.80
2022-08-11T01:52:34.572Z,0.70
2022-08-11T01:52:39.997Z,0.70
2022-08-11T01:52:43.863Z,0.60
2022-08-11T01:52:53.377Z,0.80
2022-08-11T01:53:03.395Z,0.80
2022-08-11T01:53:13.318Z,0.80
2022-08-11T01:53:23.349Z,0.70
2022-08-11T01:53:33.327Z,0.60
2022-08-11T01:53:43.309Z,0.80
2022-08-11T01:53:53.345Z,0.70
2022-08-11T01:54:03.364Z,0.70
2022-08-11T01:54:13.410Z,0.70
2022-08-11T01:54:23.297Z,1.10
2022-08-11T01:54:33.321Z,1.10
2022-08-11T01:54:43.337Z,0.90
2022-08-11T01:54:53.517Z,0.80
2022-08-11T01:55:03.312Z,0.70
2022-08-11T01:55:13.307Z,0.70
2022-08-11T01:55:23.307Z,0.60
2022-08-11T01:55:33.338Z,0.70
2022-08-11T01:55:43.346Z,0.70
2022-08-11T01:55:53.345Z,0.90
2022-08-11T01:56:03.381Z,0.90
2022-08-11T01:56:13.419Z,0.90
2022-08-11T01:56:23.417Z,0.80
2022-08-11T01:56:33.428Z,0.80
2022-08-11T01:56:43.336Z,0.90
2022-08-11T01:56:53.352Z,1.00
2022-08-11T01:57:03.403Z,0.80
2022-08-11T01:57:13.332Z,0.70
2022-08-11T01:57:23.372Z,0.60
2022-08-11T01:57:33.352Z,0.80
2022-08-11T01:57:43.430Z,0.80
2022-08-11T01:57:53.313Z,0.80
2022-08-11T01:58:03.391Z,0.80
2022-08-11T01:58:13.343Z,0.70
2022-08-11T01:58:43.468Z,0.80
2022-08-11T01:58:43.958Z,0.90
2022-08-11T01:58:44.477Z,0.80
2022-08-11T01:58:53.384Z,0.90
2022-08-11T01:59:03.358Z,0.90
2022-08-11T01:59:13.385Z,0.90
2022-08-11T01:59:23.389Z,0.80
2022-08-11T01:59:33.428Z,0.70
2022-08-11T01:59:43.345Z,0.80
2022-08-11T01:59:53.428Z,0.80
2022-08-11T02:00:03.322Z,0.90
2022-08-11T02:00:13.304Z,1.00
2022-08-11T02:00:23.414Z,0.90
2022-08-11T02:00:33.496Z,1.00
2022-08-11T02:00:43.464Z,1.10
2022-08-11T02:00:53.458Z,1.00
2022-08-11T02:01:03.381Z,0.90
2022-08-11T02:01:13.400Z,0.90
2022-08-11T02:01:23.446Z,0.90
2022-08-11T02:01:33.306Z,1.00
2022-08-11T02:01:43.299Z,0.90
2022-08-11T02:01:53.421Z,1.00
2022-08-11T02:02:03.365Z,0.90
2022-08-11T02:02:16.689Z,0.80
2022-08-11T02:02:23.400Z,0.80
2022-08-11T02:02:33.425Z,0.70
2022-08-11T02:02:43.415Z,0.60
2022-08-11T02:02:53.407Z,0.40
2022-08-11T02:03:03.424Z,0.60
2022-08-11T02:03:13.306Z,0.80
2022-08-11T02:03:23.419Z,0.90
2022-08-11T02:03:33.361Z,1.00
2022-08-11T02:03:43.330Z,0.90
2022-08-11T02:03:53.413Z,0.80
2022-08-11T02:04:03.336Z,0.60
2022-08-11T02:04:13.300Z,0.60
2022-08-11T02:04:23.392Z,0.80
2022-08-11T02:04:33.381Z,0.90
2022-08-11T02:04:43.342Z,0.90
2022-08-11T02:04:53.392Z,0.90
2022-08-11T02:05:03.420Z,0.90
2022-08-11T02:05:13.310Z,0.80
2022-08-11T02:05:23.311Z,1.00
2022-08-11T02:05:33.297Z,1.10
2022-08-11T02:05:43.376Z,1.10
2022-08-11T02:05:53.331Z,1.20
2022-08-11T02:06:03.364Z,1.00
2022-08-11T02:06:13.409Z,1.00
2022-08-11T02:06:23.300Z,0.90
2022-08-11T02:06:33.400Z,1.10
2022-08-11T02:06:43.393Z,1.10
2022-08-11T02:06:53.415Z,1.00
2022-08-11T02:07:03.316Z,1.20
2022-08-11T02:07:13.340Z,1.10
2022-08-11T02:07:23.367Z,1.10
2022-08-11T02:07:33.356Z,0.80
2022-08-11T02:07:43.367Z,1.00
2022-08-11T02:07:53.379Z,1.30
2022-08-11T02:08:03.391Z,1.30
2022-08-11T02:08:13.398Z,1.20
2022-08-11T02:08:33.520Z,0.90
2022-08-11T02:08:33.801Z,0.80
2022-08-11T02:08:47.614Z,0.90
2022-08-11T02:08:53.380Z,1.00
2022-08-11T02:09:03.403Z,1.00
2022-08-11T02:09:13.344Z,1.00
2022-08-11T02:09:23.335Z,0.90
2022-08-11T02:09:33.408Z,0.90
2022-08-11T02:09:49.256Z,0.80
2022-08-11T02:09:53.385Z,0.80
2022-08-11T02:10:03.384Z,0.80
2022-08-11T02:10:13.517Z,1.00
2022-08-11T02:10:23.390Z,0.90
2022-08-11T02:10:35.410Z,1.00
2022-08-11T02:10:50.450Z,0.90
2022-08-11T02:10:53.408Z,0.90
2022-08-11T02:11:04.634Z,0.70
2022-08-11T02:11:13.412Z,0.70
2022-08-11T02:11:23.421Z,0.80
2022-08-11T02:11:35.365Z,0.60
2022-08-11T02:11:43.361Z,0.70
2022-08-11T02:11:53.427Z,0.80
2022-08-11T02:12:03.353Z,0.80
2022-08-11T02:12:13.311Z,0.90
2022-08-11T02:12:23.339Z,0.80
2022-08-11T02:12:33.524Z,0.80
2022-08-11T02:12:45.470Z,0.90
2022-08-11T02:12:53.296Z,0.90
2022-08-11T02:13:03.303Z,0.80